Time;durP1;ratioP1;P1;durP2;ratioP2;P2;SDS_P1;SDS_P2;PMS_P1;PMS_P2;Temp;Humidity;BMP_temperature;BMP_pressure;BME280_temperature;BME280_humidity;BME280_pressure;Samples;Min_cycle;Max_cycle;Signal;HPM_P1;HPM_P2
2023/04/24 00:02:18;;;;;;;2.35;1.15;;;;;;;-147.53;100.00;57128.34;10098448;29;20056;-85
2023/04/24 00:07:20;;;;;;;1.00;0.73;;;;;;;-147.53;100.00;57128.34;10092432;29;20057;-85
2023/04/24 00:12:22;;;;;;;1.92;1.00;;;;;;;-147.53;100.00;57128.34;10107054;29;20530;-85
2023/04/24 00:17:26;;;;;;;1.95;0.93;;;;;;;-147.53;100.00;57128.34;10080594;29;20094;-85
2023/04/24 00:22:32;;;;;;;2.67;1.20;;;;;;;-147.53;100.00;57128.34;10098747;29;20530;-85
2023/04/24 00:27:36;;;;;;;1.30;0.70;;;;;;;-147.53;100.00;57128.34;10106582;29;20102;-86
2023/04/24 00:32:38;;;;;;;1.17;0.73;;;;;;;-147.53;100.00;57128.34;10097448;29;20052;-87
2023/04/24 00:37:40;;;;;;;1.40;0.77;;;;;;;-147.53;100.00;57128.34;10105508;29;20057;-87
2023/04/24 00:42:43;;;;;;;0.98;0.65;;;;;;;-147.53;100.00;57128.34;10088584;29;20100;-85
2023/04/24 00:47:52;;;;;;;0.65;0.45;;;;;;;-147.53;100.00;57128.34;10075048;29;20057;-85
2023/04/24 00:52:54;;;;;;;0.68;0.50;;;;;;;-147.53;100.00;57128.34;10087156;29;20583;-86
2023/04/24 00:57:56;;;;;;;0.32;0.32;;;;;;;-147.53;100.00;57128.34;10083620;29;20076;-86
2023/04/24 01:03:00;;;;;;;3.90;0.73;;;;;;;-147.53;100.00;57128.34;10093531;29;20052;-86
2023/04/24 01:08:03;;;;;;;0.40;0.30;;;;;;;-147.53;100.00;57128.34;10074675;29;20411;-86
2023/04/24 01:13:05;;;;;;;0.98;0.68;;;;;;;-147.53;100.00;57128.34;10108983;29;20100;-86
2023/04/24 01:18:07;;;;;;;0.60;0.60;;;;;;;-147.53;100.00;57128.34;10106438;29;20097;-86
2023/04/24 01:23:10;;;;;;;0.93;0.68;;;;;;;-147.53;100.00;57128.34;10089875;29;20418;-85
2023/04/24 01:28:13;;;;;;;1.63;0.93;;;;;;;-147.53;100.00;57128.34;10081509;29;20104;-86
2023/04/24 01:33:20;;;;;;;0.90;0.68;;;;;;;-147.53;100.00;57128.34;10107494;29;20053;-85
2023/04/24 01:38:24;;;;;;;3.00;0.82;;;;;;;-147.53;100.00;57128.34;10068779;29;20041;-86
2023/04/24 01:43:27;;;;;;;0.93;0.60;;;;;;;-147.53;100.00;57128.34;10053892;29;20112;-86
2023/04/24 01:48:33;;;;;;;1.50;0.90;;;;;;;-147.53;100.00;57128.34;10081502;29;20479;-86
2023/04/24 01:53:35;;;;;;;1.92;1.23;;;;;;;-147.53;100.00;57128.34;10065898;29;20485;-86
2023/04/24 01:58:37;;;;;;;2.25;1.55;;;;;;;-147.53;100.00;57128.34;10101233;29;20436;-87
2023/04/24 02:03:39;;;;;;;1.08;0.95;;;;;;;-147.53;100.00;57128.34;10083638;29;20049;-85
2023/04/24 02:08:41;;;;;;;1.27;0.93;;;;;;;-147.53;100.00;57128.34;10082538;29;20104;-85
2023/04/24 02:13:47;;;;;;;1.35;0.88;;;;;;;-147.53;100.00;57128.34;10078246;29;20053;-86
2023/04/24 02:18:49;;;;;;;1.73;1.05;;;;;;;-147.53;100.00;57128.34;10078509;29;20101;-86
2023/04/24 02:23:51;;;;;;;1.52;1.00;;;;;;;-147.53;100.00;57128.34;10092083;29;20049;-85
2023/04/24 02:28:53;;;;;;;2.85;1.52;;;;;;;-147.53;100.00;57128.34;10065328;29;20132;-86
2023/04/24 02:33:56;;;;;;;1.33;0.82;;;;;;;-147.53;100.00;57128.34;10093036;29;20048;-85
2023/04/24 02:39:01;;;;;;;3.22;1.75;;;;;;;-147.53;100.00;57128.34;10095059;29;20148;-84
2023/04/24 02:44:27;;;;;;;1.33;0.88;;;;;;;-147.53;100.00;57128.34;10086844;29;20056;-85
2023/04/24 02:49:35;;;;;;;2.05;1.30;;;;;;;-147.53;100.00;57128.34;10069743;29;20104;-86
2023/04/24 02:54:37;;;;;;;1.40;0.95;;;;;;;-147.53;100.00;57128.34;10092716;29;20132;-84
2023/04/24 02:59:39;;;;;;;1.75;1.10;;;;;;;-147.53;100.00;57128.34;10094653;29;20056;-85
2023/04/24 03:04:42;;;;;;;2.03;1.10;;;;;;;-147.53;100.00;57128.34;10077013;29;20140;-86
2023/04/24 03:09:45;;;;;;;2.22;1.25;;;;;;;-147.53;100.00;57128.34;10100487;29;20065;-86
2023/04/24 03:14:53;;;;;;;1.98;1.25;;;;;;;-147.53;100.00;57128.34;10077830;29;20112;-86
2023/04/24 03:19:55;;;;;;;2.30;1.40;;;;;;;-147.53;100.00;57128.34;10095344;29;20056;-86
2023/04/24 03:24:57;;;;;;;3.72;1.58;;;;;;;-147.53;100.00;57128.34;10096942;29;20072;-85
2023/04/24 03:30:00;;;;;;;4.07;0.95;;;;;;;-147.53;100.00;57128.34;10082694;29;20629;-85
2023/04/24 03:35:16;;;;;;;2.85;1.60;;;;;;;-147.53;100.00;57128.34;10091186;29;20521;-87
2023/04/24 03:40:20;;;;;;;2.00;1.13;;;;;;;-147.53;100.00;57128.34;10088465;29;20068;-86
2023/04/24 03:45:27;;;;;;;2.10;1.38;;;;;;;-147.53;100.00;57128.34;10088692;29;20063;-87
2023/04/24 03:50:29;;;;;;;2.42;1.30;;;;;;;-147.53;100.00;57128.34;10084385;29;20135;-85
2023/04/24 03:55:32;;;;;;;1.88;1.10;;;;;;;-147.53;100.00;57128.34;10092956;29;20049;-86
2023/04/24 04:00:40;;;;;;;3.15;1.35;;;;;;;-147.53;100.00;57128.34;10085909;29;20049;-85
2023/04/24 04:06:03;;;;;;;2.70;1.65;;;;;;;-147.53;100.00;57128.34;10094583;29;20082;-85
2023/04/24 04:11:05;;;;;;;1.90;1.08;;;;;;;-147.53;100.00;57128.34;10090988;29;20143;-87
2023/04/24 04:16:08;;;;;;;1.90;1.27;;;;;;;-147.53;100.00;57128.34;10104870;29;20116;-86
2023/04/24 04:21:12;;;;;;;2.17;1.35;;;;;;;-147.53;100.00;57128.34;10083122;29;20593;-85
2023/04/24 04:26:25;;;;;;;2.13;1.33;;;;;;;-147.53;100.00;57128.34;10095210;29;20635;-86
2023/04/24 04:31:36;;;;;;;2.92;1.30;;;;;;;-147.53;100.00;57128.34;10089994;29;20136;-85
2023/04/24 04:36:46;;;;;;;2.95;1.55;;;;;;;-147.53;100.00;57128.34;10074839;29;20045;-86
2023/04/24 04:42:08;;;;;;;2.80;1.60;;;;;;;-147.53;100.00;57128.34;10095646;29;20053;-86
2023/04/24 04:47:17;;;;;;;4.50;1.75;;;;;;;-147.53;100.00;57128.34;10092549;29;20048;-86
2023/04/24 04:52:33;;;;;;;4.43;2.25;;;;;;;-147.53;100.00;57128.34;10088135;29;20075;-86
2023/04/24 04:58:03;;;;;;;2.07;1.23;;;;;;;-147.53;100.00;57128.34;10090155;29;20049;-86
2023/04/24 05:03:19;;;;;;;2.40;1.33;;;;;;;-147.53;100.00;57128.34;10069226;29;20059;-88
2023/04/24 05:08:29;;;;;;;2.67;1.27;;;;;;;-147.53;100.00;57128.34;10052678;29;20099;-86
2023/04/24 05:13:38;;;;;;;4.70;2.55;;;;;;;-147.53;100.00;57128.34;10091215;29;20072;-85
2023/04/24 05:18:49;;;;;;;3.17;1.75;;;;;;;-147.53;100.00;57128.34;10095849;29;20095;-85
2023/04/24 05:23:55;;;;;;;1.85;1.13;;;;;;;-147.53;100.00;57128.34;10105152;29;20075;-86
2023/04/24 05:29:30;;;;;;;2.83;1.65;;;;;;;-147.53;100.00;57128.34;10107348;29;20063;-84
2023/04/24 05:34:41;;;;;;;6.32;2.40;;;;;;;-147.53;100.00;57128.34;10081472;29;20049;-85
2023/04/24 05:39:46;;;;;;;3.03;1.50;;;;;;;-147.53;100.00;57128.34;10067428;29;20068;-86
2023/04/24 05:44:47;;;;;;;5.53;2.25;;;;;;;-147.53;100.00;57128.34;10087595;29;20048;-85
2023/04/24 05:49:53;;;;;;;4.68;2.10;;;;;;;-147.53;100.00;57128.34;10104651;29;20060;-86
2023/04/24 05:54:55;;;;;;;2.53;1.58;;;;;;;-147.53;100.00;57128.34;10102931;29;20057;-85
2023/04/24 06:00:00;;;;;;;6.72;2.67;;;;;;;-147.53;100.00;57128.34;10102377;29;20053;-85
2023/04/24 06:05:04;;;;;;;4.70;2.10;;;;;;;-147.53;100.00;57128.34;10100762;29;20036;-85
2023/04/24 06:10:07;;;;;;;3.13;1.67;;;;;;;-147.53;100.00;57128.34;10084075;29;20057;-86
2023/04/24 06:15:15;;;;;;;3.40;1.73;;;;;;;-147.53;100.00;57128.34;10071043;29;20065;-84
2023/04/24 06:20:39;;;;;;;5.05;2.33;;;;;;;-147.53;100.00;57128.34;10082896;29;20466;-88
2023/04/24 06:25:56;;;;;;;3.53;1.63;;;;;;;-147.53;100.00;57128.34;10072647;29;20913;-88
2023/04/24 06:37:49;;;;;;;4.43;2.10;;;;;;;-147.53;100.00;57128.34;10108094;29;20045;-88
2023/04/24 08:06:19;;;;;;;5.00;2.63;;;;;;;-147.53;100.00;57128.34;10137574;29;20079;-88
2023/04/24 08:11:36;;;;;;;6.00;2.38;;;;;;;-147.53;100.00;57128.34;10315469;23;20052;-87
2023/04/24 08:17:03;;;;;;;3.90;1.75;;;;;;;-147.53;100.00;57128.34;10100104;29;20080;-87
2023/04/24 08:23:00;;;;;;;5.53;2.38;;;;;;;-147.53;100.00;57128.34;10125294;29;20572;-88
2023/04/24 08:28:59;;;;;;;;;;;;;;;;;;;;;
2023/04/24 08:34:12;;;;;;;6.90;2.65;;;;;;;-147.53;100.00;57128.34;10107590;29;20052;-86
2023/04/24 08:39:21;;;;;;;3.67;2.00;;;;;;;-147.53;100.00;57128.34;10100511;29;20587;-86
2023/04/24 08:44:38;;;;;;;3.63;1.67;;;;;;;-147.53;100.00;57128.34;10095357;29;20651;-87
2023/04/24 08:49:50;;;;;;;4.07;2.22;;;;;;;-147.53;100.00;57128.34;10118591;29;20059;-86
2023/04/24 08:54:56;;;;;;;4.03;2.03;;;;;;;-147.53;100.00;57128.34;10129581;29;20048;-87
2023/04/24 09:00:08;;;;;;;3.47;2.15;;;;;;;-147.53;100.00;57128.34;10103725;29;20058;-86
2023/04/24 09:05:13;;;;;;;3.13;1.15;;;;;;;-147.53;100.00;57128.34;10133653;29;20116;-86
2023/04/24 09:10:17;;;;;;;2.30;1.25;;;;;;;-147.53;100.00;57128.34;10121433;29;20664;-85
2023/04/24 09:15:20;;;;;;;3.60;1.67;;;;;;;-147.53;100.00;57128.34;10134741;29;20052;-86
2023/04/24 09:20:22;;;;;;;2.30;1.20;;;;;;;-147.53;100.00;57128.34;10116436;29;20289;-85
2023/04/24 09:25:35;;;;;;;2.83;1.20;;;;;;;-147.53;100.00;57128.34;10126804;29;20797;-86
2023/04/24 09:30:38;;;;;;;2.67;1.23;;;;;;;-147.53;100.00;57128.34;10125776;29;20123;-87
2023/04/24 09:35:48;;;;;;;3.28;1.67;;;;;;;-147.53;100.00;57128.34;10138356;29;20807;-88
2023/04/24 09:40:50;;;;;;;4.07;1.65;;;;;;;-147.53;100.00;57128.34;10131880;29;20123;-86
2023/04/24 09:45:56;;;;;;;5.38;1.70;;;;;;;-147.53;100.00;57128.34;10133698;29;20060;-85
2023/04/24 09:51:01;;;;;;;4.50;1.70;;;;;;;-147.53;100.00;57128.34;10128759;29;20053;-85
2023/04/24 09:56:08;;;;;;;2.53;1.38;;;;;;;-147.53;100.00;57128.34;10134179;29;20056;-85
2023/04/24 10:01:09;;;;;;;3.72;1.80;;;;;;;-147.53;100.00;57128.34;10134477;29;20083;-85
2023/04/24 10:06:13;;;;;;;2.63;1.13;;;;;;;-147.53;100.00;57128.34;10150101;29;20056;-84
2023/04/24 10:11:15;;;;;;;2.38;1.17;;;;;;;-147.53;100.00;57128.34;10117922;29;20056;-84
2023/04/24 10:16:18;;;;;;;4.45;1.67;;;;;;;-147.53;100.00;57128.34;10125839;29;20080;-84
2023/04/24 10:21:20;;;;;;;3.08;1.52;;;;;;;-147.53;100.00;57128.34;10140248;29;20052;-84
2023/04/24 10:26:22;;;;;;;2.70;1.38;;;;;;;-147.53;100.00;57128.34;10156661;29;20063;-85
2023/04/24 10:31:25;;;;;;;3.55;1.65;;;;;;;-147.53;100.00;57128.34;10149691;29;20287;-86
2023/04/24 10:36:59;;;;;;;3.38;1.48;;;;;;;-147.53;100.00;57128.34;10117303;29;20055;-88
2023/04/24 10:42:15;;;;;;;2.28;1.17;;;;;;;-147.53;100.00;57128.34;10775922;23;20149;-84
2023/04/24 10:47:17;;;;;;;2.38;1.08;;;;;;;-147.53;100.00;57128.34;10186876;29;20183;-84
2023/04/24 10:52:18;;;;;;;6.40;2.60;;;;;;;-147.53;100.00;57128.34;10144455;29;20147;-83
2023/04/24 10:57:20;;;;;;;1.50;0.90;;;;;;;-147.53;100.00;57128.34;10156554;29;20059;-84
2023/04/24 11:02:37;;;;;;;1.90;1.00;;;;;;;-147.53;100.00;57128.34;10127768;29;20092;-83
2023/04/24 11:08:25;;;;;;;2.00;1.20;;;;;;;-147.53;100.00;57128.34;10153040;29;20698;-83
2023/04/24 11:13:53;;;;;;;2.45;0.73;;;;;;;-147.53;100.00;57128.34;10038060;29;20065;-83
2023/04/24 11:19:06;;;;;;;1.35;0.75;;;;;;;-147.53;100.00;57128.34;10133163;29;20063;-85
2023/04/24 11:24:47;;;;;;;1.27;0.70;;;;;;;-147.53;100.00;57128.34;10134920;29;20053;-81
2023/04/24 11:29:54;;;;;;;1.02;0.70;;;;;;;-147.53;100.00;57128.34;10074820;29;20052;-84
2023/04/24 11:35:16;;;;;;;1.00;0.40;;;;;;;-147.53;100.00;57128.34;10127009;29;20072;-83
2023/04/24 11:40:20;;;;;;;1.75;1.20;;;;;;;-147.53;100.00;57128.34;10132961;29;20078;-82
2023/04/24 11:45:25;;;;;;;0.70;0.55;;;;;;;-147.53;100.00;57128.34;10152799;29;20144;-82
2023/04/24 11:50:27;;;;;;;1.15;0.90;;;;;;;-147.53;100.00;57128.34;10164460;29;20056;-84
2023/04/24 11:55:30;;;;;;;0.88;0.50;;;;;;;-147.53;100.00;57128.34;10138171;29;20711;-82
2023/04/24 12:00:38;;;;;;;0.77;0.50;;;;;;;-147.53;100.00;57128.34;10184807;29;20107;-84
2023/04/24 12:05:40;;;;;;;2.30;1.05;;;;;;;-147.53;100.00;57128.34;10164503;29;20065;-82
2023/04/24 12:10:42;;;;;;;2.28;1.23;;;;;;;-147.53;100.00;57128.34;10156944;29;20052;-82
2023/04/24 12:15:44;;;;;;;5.07;2.25;;;;;;;-147.53;100.00;57128.34;10132928;29;20057;-84
2023/04/24 12:20:46;;;;;;;3.88;1.98;;;;;;;-147.53;100.00;57128.34;10130343;29;20521;-82
2023/04/24 12:25:51;;;;;;;6.35;2.92;;;;;;;-147.53;100.00;57128.34;10170376;29;20071;-84
2023/04/24 12:30:53;;;;;;;5.38;2.22;;;;;;;-147.53;100.00;57128.34;10143104;29;20092;-82
2023/04/24 12:35:57;;;;;;;4.82;2.25;;;;;;;-147.53;100.00;57128.34;10176544;29;20429;-82
2023/04/24 12:41:25;;;;;;;2.10;1.02;;;;;;;-147.53;100.00;57128.34;10169119;29;20681;-84
2023/04/24 12:46:27;;;;;;;8.95;2.10;;;;;;;-147.53;100.00;57128.34;10156141;29;20071;-84
2023/04/24 12:51:29;;;;;;;2.95;1.52;;;;;;;-147.53;100.00;57128.34;10163532;29;20085;-86
2023/04/24 12:56:31;;;;;;;2.55;1.60;;;;;;;-147.53;100.00;57128.34;10161420;29;20044;-82
2023/04/24 13:01:33;;;;;;;7.30;1.73;;;;;;;-147.53;100.00;57128.34;10157073;29;20056;-82
2023/04/24 13:06:34;;;;;;;2.78;1.33;;;;;;;-147.53;100.00;57128.34;10144916;29;20417;-85
2023/04/24 13:11:36;;;;;;;3.15;1.58;;;;;;;-147.53;100.00;57128.34;10152828;29;20060;-84
2023/04/24 13:16:40;;;;;;;1.23;1.02;;;;;;;-147.53;100.00;57128.34;10149278;29;20049;-85
2023/04/24 13:21:42;;;;;;;4.97;1.48;;;;;;;-147.53;100.00;57128.34;10145693;29;20111;-82
2023/04/24 13:26:44;;;;;;;4.20;1.55;;;;;;;-147.53;100.00;57128.34;10157300;29;20048;-83
2023/04/24 13:31:47;;;;;;;1.83;0.93;;;;;;;-147.53;100.00;57128.34;10154425;29;20558;-83
2023/04/24 13:36:50;;;;;;;2.35;1.20;;;;;;;-147.53;100.00;57128.34;10152428;29;20068;-82
2023/04/24 13:41:54;;;;;;;2.53;1.20;;;;;;;-147.53;100.00;57128.34;10144284;29;20839;-85
2023/04/24 13:46:57;;;;;;;1.40;1.20;;;;;;;-147.53;100.00;57128.34;10157107;29;20063;-85
2023/04/24 13:51:59;;;;;;;2.55;1.00;;;;;;;-147.53;100.00;57128.34;10141531;29;20060;-83
2023/04/24 13:57:02;;;;;;;2.55;1.17;;;;;;;-147.53;100.00;57128.34;10129089;29;20524;-86
2023/04/24 14:02:04;;;;;;;2.13;1.17;;;;;;;-147.53;100.00;57128.34;10152208;29;20067;-84
2023/04/24 14:07:07;;;;;;;1.92;1.08;;;;;;;-147.53;100.00;57128.34;10156917;29;20049;-83
2023/04/24 14:12:09;;;;;;;1.05;0.70;;;;;;;-147.53;100.00;57128.34;10148892;29;20078;-82
2023/04/24 14:17:11;;;;;;;0.70;0.70;;;;;;;-147.53;100.00;57128.34;10140248;29;20057;-82
2023/04/24 14:22:12;;;;;;;1.55;0.73;;;;;;;-147.53;100.00;57128.34;10173506;29;20048;-82
2023/04/24 14:27:14;;;;;;;0.88;0.68;;;;;;;-147.53;100.00;57128.34;10149435;29;20091;-83
2023/04/24 14:32:16;;;;;;;2.08;0.95;;;;;;;-147.53;100.00;57128.34;10151500;29;20057;-81
2023/04/24 14:37:17;;;;;;;0.95;0.75;;;;;;;-147.53;100.00;57128.34;10165442;29;20591;-83
2023/04/24 14:42:19;;;;;;;1.80;1.02;;;;;;;-147.53;100.00;57128.34;10147874;29;20087;-84
2023/04/24 14:47:21;;;;;;;1.60;0.80;;;;;;;-147.53;100.00;57128.34;10146286;29;20063;-84
2023/04/24 14:52:23;;;;;;;1.35;0.65;;;;;;;-147.53;100.00;57128.34;10150632;29;20112;-85
2023/04/24 14:57:25;;;;;;;0.43;0.43;;;;;;;-147.53;100.00;57128.34;10152403;29;20056;-87
2023/04/24 15:02:32;;;;;;;0.98;0.60;;;;;;;-147.53;100.00;57128.34;10167660;29;20048;-87
2023/04/24 15:07:38;;;;;;;1.55;1.30;;;;;;;-147.53;100.00;57128.34;10140017;29;20140;-86
2023/04/24 15:12:47;;;;;;;0.80;0.70;;;;;;;-147.53;100.00;57128.34;10143828;29;20441;-88
2023/04/24 15:17:55;;;;;;;1.42;0.80;;;;;;;-147.53;100.00;57128.34;10139206;29;20128;-88
2023/04/24 15:22:59;;;;;;;2.85;1.58;;;;;;;-147.53;100.00;57128.34;10117960;29;20049;-86
2023/04/24 15:28:01;;;;;;;1.25;0.90;;;;;;;-147.53;100.00;57128.34;10140350;29;20059;-88
2023/04/24 15:33:03;;;;;;;1.63;0.73;;;;;;;-147.53;100.00;57128.34;10147103;29;20132;-87
2023/04/24 15:38:17;;;;;;;1.02;0.70;;;;;;;-147.53;100.00;57128.34;10130105;29;20501;-88
2023/04/24 15:43:30;;;;;;;6.20;0.85;;;;;;;-147.53;100.00;57128.34;10160365;29;20410;-87
2023/04/24 15:48:32;;;;;;;5.90;1.58;;;;;;;-147.53;100.00;57128.34;10147565;29;20056;-87
2023/04/24 15:53:37;;;;;;;1.38;0.70;;;;;;;-147.53;100.00;57128.34;10140736;29;20044;-87
2023/04/24 15:58:39;;;;;;;3.95;0.70;;;;;;;-147.53;100.00;57128.34;10136778;29;20048;-87
2023/04/24 16:03:41;;;;;;;1.20;0.82;;;;;;;-147.53;100.00;57128.34;10145786;29;20134;-88
2023/04/24 16:08:43;;;;;;;1.10;0.70;;;;;;;-147.53;100.00;57128.34;10146060;29;20056;-87
2023/04/24 16:13:45;;;;;;;1.98;1.13;;;;;;;-147.53;100.00;57128.34;10149775;29;20095;-87
2023/04/24 16:18:48;;;;;;;0.60;0.52;;;;;;;-147.53;100.00;57128.34;10168063;29;20119;-83
2023/04/24 16:23:53;;;;;;;0.93;0.80;;;;;;;-147.53;100.00;57128.34;10163899;29;20130;-81
2023/04/24 16:28:54;;;;;;;0.77;0.70;;;;;;;-147.53;100.00;57128.34;10150960;29;20065;-85
2023/04/24 16:33:56;;;;;;;0.22;0.20;;;;;;;-147.53;100.00;57128.34;10160504;29;20052;-84
2023/04/24 16:38:59;;;;;;;0.15;0.15;;;;;;;-147.53;100.00;57128.34;10127584;29;20068;-84
2023/04/24 16:44:03;;;;;;;0.50;0.38;;;;;;;-147.53;100.00;57128.34;10133566;29;20059;-89
2023/04/24 16:54:55;;;;;;;0.52;0.50;;;;;;;-147.53;100.00;57128.34;10130222;29;20624;-88
2023/04/24 17:00:08;;;;;;;0.63;0.40;;;;;;;-147.53;100.00;57128.34;10104489;29;20140;-88
2023/04/24 17:05:35;;;;;;;1.92;0.85;;;;;;;-147.53;100.00;57128.34;10005569;29;20215;-87
2023/04/24 17:11:01;;;;;;;0.55;0.20;;;;;;;-147.53;100.00;57128.34;10005130;29;20110;-88
2023/04/24 17:16:05;;;;;;;1.50;0.68;;;;;;;-147.53;100.00;57128.34;10022178;29;20058;-84
2023/04/24 17:21:10;;;;;;;0.65;0.40;;;;;;;-147.53;100.00;57128.34;10003965;29;20065;-86
2023/04/24 17:26:15;;;;;;;0.75;0.63;;;;;;;-147.53;100.00;57128.34;10011018;29;20492;-85
2023/04/24 17:31:24;;;;;;;0.93;0.73;;;;;;;-147.53;100.00;57128.34;10114443;29;20399;-86
2023/04/24 17:36:27;;;;;;;0.40;0.35;;;;;;;-147.53;100.00;57128.34;10109122;29;20080;-86
2023/04/24 17:41:37;;;;;;;0.47;0.47;;;;;;;-147.53;100.00;57128.34;10100597;29;20091;-86
2023/04/24 17:47:04;;;;;;;0.83;0.73;;;;;;;-147.53;100.00;57128.34;10119365;29;20087;-84
2023/04/24 17:52:10;;;;;;;1.38;0.88;;;;;;;-147.53;100.00;57128.34;10087811;29;20087;-85
2023/04/24 17:57:18;;;;;;;;;;;;;;;-147.53;100.00;57128.34;10081635;29;20055;-85
2023/04/24 18:02:27;;;;;;;3.17;1.63;;;;;;;-147.53;100.00;57128.34;10102633;29;19958;-86
2023/04/24 18:07:29;;;;;;;1.80;0.75;;;;;;;-147.53;100.00;57128.34;10102578;29;20417;-85
2023/04/24 18:12:31;;;;;;;0.63;0.43;;;;;;;-147.53;100.00;57128.34;10091874;29;20064;-85
2023/04/24 18:17:41;;;;;;;0.30;0.30;;;;;;;-147.53;100.00;57128.34;10086719;29;20500;-86
2023/04/24 18:22:46;;;;;;;1.63;0.60;;;;;;;-147.53;100.00;57128.34;10081102;29;20069;-87
2023/04/24 18:27:48;;;;;;;0.73;0.50;;;;;;;-147.53;100.00;57128.34;10086880;29;20139;-86
2023/04/24 18:32:52;;;;;;;0.93;0.63;;;;;;;-147.53;100.00;57128.34;10092844;29;20063;-86
2023/04/24 18:37:54;;;;;;;1.75;0.80;;;;;;;-147.53;100.00;57128.34;10098545;29;20411;-87
2023/04/24 18:42:56;;;;;;;1.95;0.80;;;;;;;-147.53;100.00;57128.34;10103658;29;20132;-86
2023/04/24 18:47:57;;;;;;;1.05;0.70;;;;;;;-147.53;100.00;57128.34;10093376;29;20080;-85
2023/04/24 18:52:59;;;;;;;1.23;0.40;;;;;;;-147.53;100.00;57128.34;10113691;29;20131;-85
2023/04/24 18:58:01;;;;;;;0.77;0.50;;;;;;;-147.53;100.00;57128.34;10104889;29;20045;-83
2023/04/24 19:03:03;;;;;;;4.20;0.77;;;;;;;-147.53;100.00;57128.34;10117493;29;20068;-87
2023/04/24 19:08:07;;;;;;;1.83;1.30;;;;;;;-147.53;100.00;57128.34;10102716;29;20079;-86
2023/04/24 19:13:08;;;;;;;1.20;0.80;;;;;;;-147.53;100.00;57128.34;10079659;29;20061;-87
2023/04/24 19:18:10;;;;;;;1.23;0.70;;;;;;;-147.53;100.00;57128.34;10106364;29;20060;-89
2023/04/24 19:23:12;;;;;;;0.30;0.30;;;;;;;-147.53;100.00;57128.34;10091539;29;20089;-87
2023/04/24 19:28:13;;;;;;;1.30;0.52;;;;;;;-147.53;100.00;57128.34;10101592;29;20056;-87
2023/04/24 19:33:15;;;;;;;3.95;1.15;;;;;;;-147.53;100.00;57128.34;10107681;29;20083;-87
2023/04/24 19:38:18;;;;;;;2.03;0.47;;;;;;;-147.53;100.00;57128.34;10101242;29;20077;-86
2023/04/24 19:43:19;;;;;;;1.15;0.52;;;;;;;-147.53;100.00;57128.34;10098293;29;20513;-86
2023/04/24 19:48:21;;;;;;;2.17;1.42;;;;;;;-147.53;100.00;57128.34;10077622;29;20688;-86
2023/04/24 19:53:24;;;;;;;2.90;1.70;;;;;;;-147.53;100.00;57128.34;10070571;29;20684;-86
2023/04/24 19:58:29;;;;;;;1.48;0.90;;;;;;;-147.53;100.00;57128.34;10104405;29;20049;-86
2023/04/24 20:03:31;;;;;;;1.45;1.33;;;;;;;-147.53;100.00;57128.34;10098791;29;20521;-86
2023/04/24 20:08:38;;;;;;;1.90;0.85;;;;;;;-147.53;100.00;57128.34;10095513;29;20048;-85
2023/04/24 20:13:40;;;;;;;3.17;0.50;;;;;;;-147.53;100.00;57128.34;10111067;29;20040;-86
2023/04/24 20:18:42;;;;;;;2.28;1.27;;;;;;;-147.53;100.00;57128.34;10098321;29;20040;-86
2023/04/24 20:23:43;;;;;;;1.95;1.10;;;;;;;-147.53;100.00;57128.34;10110535;29;20495;-85
2023/04/24 20:28:45;;;;;;;1.80;0.98;;;;;;;-147.53;100.00;57128.34;10080740;29;20040;-86
2023/04/24 20:33:47;;;;;;;1.42;0.90;;;;;;;-147.53;100.00;57128.34;10091343;29;20140;-85
2023/04/24 20:38:50;;;;;;;2.40;1.00;;;;;;;-147.53;100.00;57128.34;10077273;29;20096;-86
2023/04/24 20:43:52;;;;;;;0.50;0.40;;;;;;;-147.53;100.00;57128.34;10088139;29;20081;-86
2023/04/24 20:48:54;;;;;;;1.73;0.73;;;;;;;-147.53;100.00;57128.34;10086561;29;20051;-85
2023/04/24 20:53:56;;;;;;;1.25;0.68;;;;;;;-147.53;100.00;57128.34;10090670;29;20183;-85
2023/04/24 20:59:12;;;;;;;1.33;0.30;;;;;;;-147.53;100.00;57128.34;10069263;29;20063;-86
2023/04/24 21:04:16;;;;;;;1.67;0.57;;;;;;;-147.53;100.00;57128.34;10107528;29;20052;-85
2023/04/24 21:09:17;;;;;;;0.98;0.55;;;;;;;-147.53;100.00;57128.34;10097318;29;20140;-85
2023/04/24 21:14:19;;;;;;;10.23;1.00;;;;;;;-147.53;100.00;57128.34;10096281;29;20053;-86
2023/04/24 21:19:20;;;;;;;0.80;0.63;;;;;;;-147.53;100.00;57128.34;10090781;29;20052;-85
2023/04/24 21:24:22;;;;;;;1.75;0.90;;;;;;;-147.53;100.00;57128.34;10111679;29;20049;-85
2023/04/24 21:29:24;;;;;;;3.72;0.82;;;;;;;-147.53;100.00;57128.34;10110437;29;20048;-85
2023/04/24 21:34:26;;;;;;;0.50;0.35;;;;;;;-147.53;100.00;57128.34;10098324;29;20132;-85
2023/04/24 21:39:27;;;;;;;1.05;0.60;;;;;;;-147.53;100.00;57128.34;10119453;29;20084;-85
2023/04/24 21:44:29;;;;;;;0.32;0.32;;;;;;;-147.53;100.00;57128.34;10094583;29;20053;-85
2023/04/24 21:49:30;;;;;;;0.60;0.60;;;;;;;-147.53;100.00;57128.34;10089812;29;20403;-85
2023/04/24 21:54:32;;;;;;;0.73;0.73;;;;;;;-147.53;100.00;57128.34;10099613;29;20112;-85
2023/04/24 21:59:34;;;;;;;1.48;1.05;;;;;;;-147.53;100.00;57128.34;10088290;29;20058;-85
2023/04/24 22:04:35;;;;;;;1.02;0.73;;;;;;;-147.53;100.00;57128.34;10093399;29;20442;-85
2023/04/24 22:09:37;;;;;;;1.10;0.50;;;;;;;-147.53;100.00;57128.34;10081273;29;20041;-85
2023/04/24 22:14:39;;;;;;;1.45;0.90;;;;;;;-147.53;100.00;57128.34;10118635;29;20105;-85
2023/04/24 22:19:44;;;;;;;3.65;1.20;;;;;;;-147.53;100.00;57128.34;10079266;29;20058;-85
2023/04/24 22:24:46;;;;;;;2.00;0.80;;;;;;;-147.53;100.00;57128.34;10104811;29;20057;-86
2023/04/24 22:29:48;;;;;;;4.65;1.10;;;;;;;-147.53;100.00;57128.34;10085912;29;20044;-83
2023/04/24 22:34:50;;;;;;;1.27;0.75;;;;;;;-147.53;100.00;57128.34;10093288;29;20067;-83
2023/04/24 22:39:52;;;;;;;3.53;1.20;;;;;;;-147.53;100.00;57128.34;10111101;29;20056;-83
2023/04/24 22:44:54;;;;;;;2.38;0.93;;;;;;;-147.53;100.00;57128.34;10104550;29;20858;-84
2023/04/24 22:49:57;;;;;;;1.73;1.10;;;;;;;-147.53;100.00;57128.34;10090942;29;20056;-84
2023/04/24 22:54:59;;;;;;;1.13;0.68;;;;;;;-147.53;100.00;57128.34;10088247;29;20425;-85
2023/04/24 23:00:07;;;;;;;1.63;1.23;;;;;;;-147.53;100.00;57128.34;10089848;29;20135;-85
2023/04/24 23:05:10;;;;;;;0.65;0.60;;;;;;;-147.53;100.00;57128.34;10068750;29;20160;-81
2023/04/24 23:10:11;;;;;;;1.25;0.82;;;;;;;-147.53;100.00;57128.34;10116800;29;20088;-81
2023/04/24 23:15:13;;;;;;;1.20;0.52;;;;;;;-147.53;100.00;57128.34;10107195;29;20076;-83
2023/04/24 23:20:15;;;;;;;2.20;0.82;;;;;;;-147.53;100.00;57128.34;10115581;29;20062;-84
2023/04/24 23:25:17;;;;;;;0.30;0.30;;;;;;;-147.53;100.00;57128.34;10122227;29;20084;-83
2023/04/24 23:30:18;;;;;;;6.97;0.80;;;;;;;-147.53;100.00;57128.34;10085032;29;20072;-85
2023/04/24 23:35:20;;;;;;;1.02;0.80;;;;;;;-147.53;100.00;57128.34;10101280;29;20060;-85
2023/04/24 23:40:22;;;;;;;1.48;0.82;;;;;;;-147.53;100.00;57128.34;10108127;29;20053;-85
2023/04/24 23:45:26;;;;;;;1.38;1.27;;;;;;;-147.53;100.00;57128.34;10095476;29;20044;-84
2023/04/24 23:50:28;;;;;;;1.77;1.05;;;;;;;-147.53;100.00;57128.34;10098633;29;20045;-85
2023/04/24 23:55:30;;;;;;;0.55;0.55;;;;;;;-147.53;100.00;57128.34;10103163;29;20529;-85
